Latest Coastal Weather Observations for Albany Airport

IDW60701

Issued at 10:03 am WST Saturday 5 December 2020 (issued every 10 minutes, with the page automatically refreshed every 10 minutes)

About coastal observations | Map of coastal stations | Coastal observations for WA | Marine services | Other Formats
Station Details ID: 009999 Name: ALBANY AIRPORT Lat: -34.94 Lon: 117.82 Height: 68.4 m
Data from the previous 72 hours. | See also: Recent months at Albany Airport
Date/Time
WST
Wind Sea
Height
m
Swell Vis
km
Cloud Weather Temp
°C
Press
MSL
hPa
Rain since
9am
mm
Dir  Spd
kts
Gust
kts
Height
m
Period
s
Dir
05/10:00am WSW 13 18 - - - - 10 Cloudy - 16.2 1020.8 0.0
05/09:30am WSW 13 17 - - - - 10 Cloudy - 15.8 1020.7 0.0
05/09:00am SW 13 17 - - - - 10 Cloudy - 16.1 1020.5 0.0
05/08:30am WSW 12 17 - - - - 10 Cloudy - 15.7 1020.4 0.0
05/08:00am WSW 10 13 - - - - 10 Partly cloudy - 15.5 1020.1 0.0
05/07:30am W 11 14 - - - - 10 Cloudy - 15.2 1019.8 0.0
05/07:00am SW 13 18 - - - - 10 Cloudy - 15.5 1019.6 0.0
05/06:30am SW 12 16 - - - - 10 Cloudy - 14.6 1019.4 0.0
05/06:00am SW 8 11 - - - - 10 Cloudy - 13.8 1019.0 0.0
05/05:30am SW 9 13 - - - - 10 Cloudy - 13.6 1018.6 0.0
05/05:00am SW 13 17 - - - - 10 Cloudy - 13.3 1018.3 0.0
05/04:30am SW 10 13 - - - - 10 Partly cloudy - 13.6 1018.0 0.0
05/04:00am WSW 10 14 - - - - 10 Partly cloudy - 13.7 1017.6 0.0
05/03:30am SW 11 15 - - - - 10 Cloudy - 13.8 1017.3 0.0
05/03:00am SW 11 14 - - - - 10 Cloudy - 14.0 1017.0 0.0
05/02:30am WSW 9 12 - - - - 10 Partly cloudy - 13.7 1016.8 0.0
05/02:00am WSW 9 11 - - - - 10 Cloudy - 14.0 1016.9 0.0
05/01:30am SW 13 19 - - - - 10 Partly cloudy - 14.0 1016.9 0.0
05/01:00am WSW 9 13 - - - - 10 Partly cloudy - 14.3 1016.8 0.0
05/12:30am WSW 10 15 - - - - 10 Partly cloudy - 14.3 1016.7 0.0
05/12:00am SW 13 19 - - - - 10 Cloudy - 14.6 1016.5 0.0
 
Date/Time
WST
Wind Sea
Height
m
Swell Vis
km
Cloud Weather Temp
°C
Press
MSL
hPa
Rain since
9am
mm
Dir  Spd
kts
Gust
kts
Height
m
Period
s
Dir
04/11:30pm SW 15 22 - - - - 10 Cloudy - 14.6 1016.5 0.0
04/11:00pm SW 16 21 - - - - 10 Partly cloudy - 14.7 1016.0 0.0
04/10:30pm SW 15 23 - - - - 10 Partly cloudy - 14.6 1016.0 0.0
04/10:00pm SW 14 21 - - - - 10 Partly cloudy - 14.7 1015.9 0.0
04/09:30pm WSW 11 16 - - - - 10 Partly cloudy - 13.8 1015.8 0.0
04/09:01pm WSW 10 15 - - - - 9 Partly cloudy - 13.5 1015.4 0.0
04/09:00pm WSW 10 16 - - - - 10 Mostly cloudy - 13.5 1015.4 0.0
04/08:44pm SW 15 21 - - - - 6 Partly cloudy - 13.7 1015.4 0.0
04/08:30pm WSW 14 21 - - - - 10 Partly cloudy - 14.4 1015.0 0.0
04/08:00pm WSW 11 16 - - - - 10 Partly cloudy - 14.8 1014.3 0.0
04/07:30pm SW 15 23 - - - - 10 Partly cloudy - 14.9 1014.1 0.0
04/07:18pm WSW 15 26 - - - - 10 Partly cloudy - 15.7 1013.9 0.0
04/07:00pm WSW 15 23 - - - - 10 Partly cloudy - 16.5 1013.6 0.0
04/06:40pm WSW 16 26 - - - - 10 Partly cloudy - 16.5 1013.4 0.0
04/06:30pm WSW 15 23 - - - - 10 Partly cloudy - 16.7 1013.2 0.0
04/06:00pm WSW 20 33 - - - - 10 Mostly clear - 17.2 1012.8 0.0
04/05:40pm WSW 20 32 - - - - 10 Partly cloudy - 17.8 1012.4 0.0
04/05:30pm WSW 18 25 - - - - 10 Partly cloudy - 17.7 1012.4 0.0
04/05:06pm WSW 21 31 - - - - 10 Partly cloudy - 18.4 1012.0 0.0
04/05:00pm WSW 22 31 - - - - 10 Partly cloudy - 18.2 1011.9 0.0
04/04:34pm WSW 18 30 - - - - 10 Partly cloudy - 18.0 1011.8 0.0
04/04:30pm WSW 17 24 - - - - 10 Partly cloudy - 18.6 1011.6 0.0
04/04:00pm WSW 21 35 - - - - 10 Partly cloudy - 19.7 1011.5 0.0
04/03:36pm WSW 21 31 - - - - 10 Partly cloudy - 19.9 1011.2 0.0
04/03:30pm WSW 21 30 - - - - 10 Partly cloudy - 19.5 1011.3 0.0
04/03:00pm WSW 23 33 - - - - 10 Mostly cloudy - 20.1 1011.1 0.0
04/02:30pm WSW 21 33 - - - - 10 Partly cloudy - 20.9 1011.0 0.0
04/02:00pm WSW 24 36 - - - - 10 Partly cloudy - 19.9 1010.8 0.0
04/01:30pm WSW 23 33 - - - - 10 Partly cloudy - 20.8 1010.8 0.0
04/01:04pm WSW 20 33 - - - - 10 Partly cloudy - 20.9 1010.9 0.0
04/01:00pm WSW 21 30 - - - - 10 Partly cloudy - 21.0 1010.9 0.0
04/12:30pm WSW 22 35 - - - - 10 Partly cloudy - 19.8 1010.9 0.0
04/12:22pm W 21 31 - - - - 10 Partly cloudy - 20.0 1010.7 0.0
04/12:00pm W 19 26 - - - - 10 Cloudy - 19.5 1010.6 0.0
04/11:30am W 17 25 - - - - 10 Partly cloudy - 20.1 1010.7 0.0
04/11:00am WSW 20 31 - - - - 10 Partly cloudy - 17.8 1010.7 0.0
04/10:56am WSW 18 29 - - - - 10 Partly cloudy - 18.7 1010.6 0.0
04/10:30am WSW 19 27 - - - - 10 Partly cloudy - 19.3 1010.7 0.0
04/10:00am W 17 23 - - - - 10 Partly cloudy - 22.1 1010.1 0.0
04/09:30am W 16 25 - - - - 10 Partly cloudy - 20.7 1010.4 0.0
04/09:00am W 18 25 - - - - 10 Partly cloudy - 20.1 1010.4 0.0
04/08:30am W 13 18 - - - - 10 Partly cloudy - 19.1 1010.7 0.0
04/08:00am W 18 25 - - - - 10 Partly cloudy - 17.3 1011.0 0.0
04/07:30am W 13 18 - - - - 10 - - 17.5 1010.8 0.0
04/07:00am WNW 13 16 - - - - 10 - - 16.6 1010.7 0.0
04/06:30am WNW 11 13 - - - - 10 - - 15.6 1010.5 0.0
04/06:00am WNW 10 13 - - - - 10 - - 14.0 1010.4 0.0
04/05:30am WNW 7 8 - - - - 10 - - 12.5 1010.2 0.0
04/05:00am W 10 11 - - - - - - - 12.3 1010.4 0.0
04/04:30am WNW 8 10 - - - - 10 - - 11.1 1010.5 0.0
04/04:00am WNW 6 6 - - - - 10 Partly cloudy - 11.1 1010.6 0.0
04/03:30am W 6 7 - - - - 10 - - 11.4 1010.8 0.0
04/03:00am WNW 6 8 - - - - 10 Partly cloudy - 11.9 1011.0 0.0
04/02:30am WNW 6 6 - - - - 10 Partly cloudy - 12.5 1011.3 0.0
04/02:00am N 5 6 - - - - 10 Partly cloudy - 12.2 1011.5 0.0
04/01:30am NW 7 7 - - - - 10 Partly cloudy - 13.4 1011.9 0.0
04/01:00am WNW 5 6 - - - - 10 Cloudy - 13.3 1012.2 0.0
04/12:30am W 5 5 - - - - 10 Partly cloudy - 13.3 1012.4 0.0
04/12:00am WNW 5 5 - - - - 10 Mostly cloudy - 13.2 1012.5 0.0
 
Date/Time
WST
Wind Sea
Height
m
Swell Vis
km
Cloud Weather Temp
°C
Press
MSL
hPa
Rain since
9am
mm
Dir  Spd
kts
Gust
kts
Height
m
Period
s
Dir
03/11:30pm CALM 0 0 - - - - 10 Partly cloudy - 13.0 1012.6 0.0
03/11:00pm CALM 0 0 - - - - 10 Partly cloudy - 13.1 1012.9 0.0
03/10:30pm NE 3 4 - - - - 10 Partly cloudy - 13.1 1013.0 0.0
03/10:00pm NE 5 6 - - - - 10 Cloudy - 13.3 1013.1 0.0
03/09:30pm ESE 3 4 - - - - 10 Partly cloudy - 13.3 1013.2 0.0
03/09:00pm ENE 4 5 - - - - 10 - - 13.4 1013.3 0.0
03/08:30pm E 4 5 - - - - 10 - - 14.0 1013.6 0.0
03/08:00pm ESE 5 5 - - - - 10 - - 14.0 1013.8 0.0
03/07:30pm SE 6 6 - - - - 10 - - 15.1 1013.8 0.0
03/07:00pm SE 7 9 - - - - 10 - - 16.3 1013.9 0.0
03/06:30pm SE 8 11 - - - - 10 - - 17.2 1013.8 0.0
03/06:00pm SE 9 12 - - - - 10 - - 17.9 1013.8 0.0
03/05:30pm SE 10 14 - - - - 10 - - 18.3 1013.9 0.0
03/05:00pm SE 11 14 - - - - 10 - - 18.6 1013.9 0.0
03/04:30pm SE 11 14 - - - - 10 - - 19.1 1014.0 0.0
03/04:00pm ESE 11 14 - - - - 10 - - 19.0 1014.3 0.0
03/03:30pm SE 11 17 - - - - 10 - - 19.5 1014.6 0.0
03/03:00pm SE 11 15 - - - - 10 - - 20.3 1014.8 0.0
03/02:30pm ESE 12 17 - - - - 10 - - 20.0 1014.9 0.0
03/02:00pm SE 10 14 - - - - 10 - - 20.2 1014.9 0.0
03/01:30pm SE 12 18 - - - - 10 - - 20.3 1015.1 0.0
03/01:00pm SE 9 16 - - - - 10 Partly cloudy - 21.0 1015.4 0.0
03/12:30pm SE 9 15 - - - - 10 - - 21.1 1015.7 0.0
03/12:00pm SSE 8 11 - - - - 10 Partly cloudy - 20.6 1016.1 0.0
03/11:30am SE 7 10 - - - - 10 - - 20.5 1016.4 0.0
03/11:00am SE 9 12 - - - - 10 Partly cloudy - 20.4 1016.7 0.0
03/10:30am E 5 8 - - - - 10 - - 20.7 1017.0 0.0
03/10:00am SSW 4 6 - - - - 10 - - 19.9 1017.2 0.0
03/09:30am S 4 8 - - - - 10 - - 19.0 1017.4 0.0
03/09:00am W 4 7 - - - - 10 - - 18.2 1017.8 0.0
03/08:30am NW 3 5 - - - - 10 - - 17.7 1018.1 0.0
03/08:00am WSW 5 8 - - - - 10 - - 17.3 1018.1 0.0
03/07:30am SW 4 7 - - - - 10 - - 16.9 1018.0 0.0
03/07:00am WNW 5 7 - - - - 10 - - 16.2 1018.1 0.0
03/06:30am WNW 4 6 - - - - 10 - - 14.7 1017.9 0.0
03/06:00am NW 4 5 - - - - 10 - - 12.6 1017.8 0.0
03/05:30am NNW 1 3 - - - - 10 - - 10.3 1017.7 0.0
03/05:00am NW 5 5 - - - - 10 - - 9.5 1017.6 0.0
03/04:30am WNW 5 5 - - - - 10 - - 10.8 1017.6 0.0
03/04:00am WNW 5 6 - - - - 10 Partly cloudy - 10.8 1017.4 0.0
03/03:30am WNW 5 5 - - - - 10 Cloudy - 11.2 1017.3 0.0
03/03:00am WNW 6 6 - - - - 10 Partly cloudy - 11.4 1017.3 0.0
03/02:30am WNW 5 6 - - - - 10 Cloudy - 12.0 1017.5 0.0
03/02:00am NNW 1 3 - - - - 10 Cloudy - 11.9 1017.8 0.0
03/01:30am CALM 0 0 - - - - 10 Cloudy - 12.2 1018.0 0.0
03/01:00am CALM 0 0 - - - - 10 Cloudy - 12.4 1018.1 0.0
03/12:30am NW 2 4 - - - - 10 Cloudy - 12.9 1018.6 0.0
03/12:00am WNW 4 5 - - - - 10 Cloudy - 13.3 1018.8 0.0
 
Date/Time
WST
Wind Sea
Height
m
Swell Vis
km
Cloud Weather Temp
°C
Press
MSL
hPa
Rain since
9am
mm
Dir  Spd
kts
Gust
kts
Height
m
Period
s
Dir
02/11:30pm WNW 4 4 - - - - 10 Cloudy - 13.2 1019.1 0.0
02/11:00pm WNW 3 4 - - - - 10 Partly cloudy - 12.5 1019.4 0.0
02/10:30pm W 3 4 - - - - 10 Partly cloudy - 13.2 1019.5 0.0
02/10:00pm SW 1 4 - - - - 10 Cloudy - 15.0 1019.6 0.0
02/09:30pm SW 3 3 - - - - 10 Cloudy - 15.2 1019.7 0.0
02/09:00pm SW 3 4 - - - - 10 Cloudy - 15.2 1019.7 0.0
02/08:30pm SSW 5 6 - - - - 10 Cloudy - 15.3 1019.8 0.0
02/08:00pm SSW 6 9 - - - - 10 Cloudy - 15.4 1019.6 0.0
02/07:30pm SSW 8 10 - - - - 10 Cloudy - 15.5 1019.3 0.0
02/07:00pm SSW 9 11 - - - - 10 Cloudy - 15.8 1019.1 0.0
02/06:30pm SSW 8 12 - - - - 10 Cloudy - 16.1 1018.8 0.0
02/06:00pm SSW 8 12 - - - - 10 Cloudy - 16.8 1018.7 0.0
02/05:30pm S 9 13 - - - - 10 Cloudy - 17.3 1018.3 0.0
02/05:00pm SSW 9 14 - - - - 10 Partly cloudy - 18.0 1018.2 0.0
02/04:30pm SSW 11 14 - - - - 10 - - 18.6 1018.0 0.0
02/04:00pm SSW 10 14 - - - - 10 - - 19.5 1018.0 0.0
02/03:30pm SSW 11 16 - - - - 10 - - 19.3 1018.0 0.0
02/03:00pm SSW 11 14 - - - - 10 - - 19.3 1018.0 0.0
02/02:30pm SSW 10 14 - - - - 10 - - 20.6 1017.9 0.0
02/02:00pm S 11 15 - - - - 10 - - 20.2 1017.9 0.0
02/01:30pm SSE 11 17 - - - - 10 - - 20.6 1018.0 0.0
02/01:00pm SSE 12 16 - - - - 10 - - 20.7 1017.9 0.0
02/12:30pm SSE 11 15 - - - - 10 - - 20.9 1018.2 0.0
02/12:00pm SW 5 8 - - - - 10 - - 21.7 1018.5 0.0
02/11:30am W 5 11 - - - - 10 - - 21.3 1018.8 0.0
02/11:00am W 7 11 - - - - 10 - - 20.7 1019.4 0.0
02/10:30am WNW 6 8 - - - - 10 - - 20.2 1019.8 0.0

Other formats

Comma delimited format used in spreadsheet applications
http://www.bom.gov.au/fwo/IDW60701/IDW60701.94802.axf

JavaScript Object Notation format (JSON) in row-major order
http://www.bom.gov.au/fwo/IDW60701/IDW60701.94802.json

Data quality

Most of these data are generated automatically and are frequently updated. Quality checks on data are not normally performed. It is possible for incorrect values to appear. Refer to information at About Latest Weather Observations and please check the disclaimer before using these data.